Airfield :
LOGIN :

Register | Disclaimer

   EN    FR    IT 

 










Legend :    VFR   Marginal VFR   IFR   Intensive IFR   Very Intensive IFR
Visi :
Ceiling :
>= 8 km
>= 3000ft
5 to 8 km
1000 to 3000 ft
1500m to 5 km
500 to 1000 ft
800 to 1500m
200 to 500 ft
< 800m
< 200 ft
Symbols :   Thunderstorms  Fog  Heavy snow  Heavy precipitations  Wind > 20 kt
SIGMETs :     Misc.  Thunderstorms  Icing  Turbulence  Mountain Waves  Volcanic Ashes






- Airport Elevation : 157 ft
- IATA code : LIL


LFQQ - Lille Lesquin

CURRENT METAR :
  • 271500Z AUTO 31014KT 9999 BKN006 OVC011 03/03 Q0999 BECMG 33020G35KT BKN035

EXPIRED METARs :
  • 271430Z AUTO 31018KT 7000 -DZ OVC007 03/02 Q0997 BECMG 33020G35KT BKN035
  • 271400Z AUTO 32013KT 9999 BKN006 OVC012 03/02 Q0996 BECMG 33020G35KT BKN035
  • 271330Z AUTO 33011KT 9999 OVC005 02/02 Q0994 BECMG 33020G35KT BKN035
  • 271300Z AUTO 34011KT 7000 -SNRA OVC004 02/01 Q0993 TEMPO 4000 SNRA BECMG 33020G35KT BKN035
  • 271230Z AUTO 34010KT 3600 -SN BR BKN003 OVC008 01/01 Q0992 BECMG 33020G35KT 9999 NSW BKN035

TAF TAF LFQQ
Valid from the 27 at 12:00 until the 28 at 18:00 UTC


271100Z 2712/2818 36010KT 4000 SNRA OVC007
BECMG 2714/2716 33020G35KT 9999 NSW BKN035
BECMG 2717/2719 28007KT
BECMG 2806/2809 18012KT
BECMG 2811/2814 18020G30KT
BECMG 2814/2816 4000 RA BKN013
ATIS : +33 3 20 16 19 54



MET'MAP, your aeronautical weather chart ! - Copyright ORBIFLY December 2007 - Disclaimer

ORBIFLY MET'MAP TEAM :

Programming & Development : Alexandra Zaïnal
Concept & original design : Baudouin d'Aumeries
Assistance for programming : Marc-Olivier Méhu
Technical & hardware support : Manuel Goepfert

Contact : metmap@orbifly.com




SOURCES & CREDITS :

   NOAA